EZY866R LIMC-LYBE
Flight info
| Callsign | EZY866R |
|---|---|
| Flight time | 1h 24m |
| Altitude | 35000 |
| Route | OSKOR DCT NOBMI DCT ROSKA DCT PEVAL DCT RUDIK DCT SOMUN DCT ENUPU |
| Aircraft | A320/M-SDE3FGHIRWY/LB1 |
Departure
| Time | 2026-02-19 12:06 |
|---|---|
| Airport | Milan Malpensa International Airport (LIMC) |
Arrival
| Time | 2026-02-19 13:30 |
|---|---|
| Airport | Belgrade Nikola Tesla Airport (LYBE) |
| Time | Latitude | Longitude | Altitude | Speed | Heading |
|---|---|---|---|---|---|
| 2026-02-19 11:42 | 45.62415 | 8.72007 | 742 ft | 0 kts | 79° |
| 2026-02-19 11:58 | 45.62417 | 8.72019 | 741 ft | 3 kts | 79° |
| 2026-02-19 11:58 | 45.62422 | 8.72065 | 741 ft | 4 kts | 81° |
| 2026-02-19 11:58 | 45.62410 | 8.72097 | 740 ft | 6 kts | 143° |
| 2026-02-19 11:59 | 45.62358 | 8.72115 | 740 ft | 8 kts | 169° |
| 2026-02-19 11:59 | 45.62314 | 8.72128 | 741 ft | 6 kts | 169° |
| 2026-02-19 11:59 | 45.62260 | 8.72142 | 741 ft | 10 kts | 169° |
| 2026-02-19 11:59 | 45.62177 | 8.72165 | 741 ft | 14 kts | 169° |
| 2026-02-19 12:00 | 45.62071 | 8.72192 | 740 ft | 18 kts | 170° |
| 2026-02-19 12:00 | 45.61813 | 8.72264 | 741 ft | 18 kts | 168° |
| 2026-02-19 12:00 | 45.61691 | 8.72299 | 741 ft | 19 kts | 169° |
| 2026-02-19 12:01 | 45.61591 | 8.72326 | 742 ft | 11 kts | 169° |
| 2026-02-19 12:01 | 45.61547 | 8.72338 | 742 ft | 3 kts | 169° |
| 2026-02-19 12:01 | 45.61525 | 8.72344 | 742 ft | 4 kts | 169° |
| 2026-02-19 12:01 | 45.61470 | 8.72358 | 742 ft | 12 kts | 169° |
| 2026-02-19 12:02 | 45.61402 | 8.72404 | 742 ft | 9 kts | 135° |
| 2026-02-19 12:02 | 45.61367 | 8.72460 | 742 ft | 7 kts | 133° |
| 2026-02-19 12:02 | 45.61339 | 8.72501 | 742 ft | 5 kts | 140° |
| 2026-02-19 12:02 | 45.61302 | 8.72515 | 742 ft | 7 kts | 168° |
| 2026-02-19 12:03 | 45.61254 | 8.72529 | 742 ft | 7 kts | 168° |
| 2026-02-19 12:03 | 45.61197 | 8.72546 | 742 ft | 9 kts | 168° |
| 2026-02-19 12:03 | 45.61151 | 8.72559 | 742 ft | 11 kts | 168° |
| 2026-02-19 12:03 | 45.61076 | 8.72627 | 742 ft | 9 kts | 92° |
| 2026-02-19 12:04 | 45.61082 | 8.72681 | 742 ft | 8 kts | 81° |
| 2026-02-19 12:04 | 45.61153 | 8.72813 | 742 ft | 0 kts | 348° |
| 2026-02-19 12:05 | 45.61282 | 8.72774 | 742 ft | 53 kts | 348° |
| 2026-02-19 12:05 | 45.61869 | 8.72612 | 742 ft | 115 kts | 349° |
| 2026-02-19 12:05 | 45.62820 | 8.72352 | 741 ft | 161 kts | 348° |
| 2026-02-19 12:06 | 45.63987 | 8.72014 | 1157 ft | 168 kts | 342° |
| 2026-02-19 12:06 | 45.65040 | 8.71391 | 1933 ft | 161 kts | 329° |
| 2026-02-19 12:06 | 45.66057 | 8.70583 | 2319 ft | 176 kts | 329° |
| 2026-02-19 12:06 | 45.67188 | 8.69667 | 2558 ft | 198 kts | 329° |
| 2026-02-19 12:07 | 45.68391 | 8.68559 | 2953 ft | 215 kts | 321° |
| 2026-02-19 12:07 | 45.69593 | 8.67165 | 3601 ft | 223 kts | 320° |
| 2026-02-19 12:07 | 45.70789 | 8.65763 | 4361 ft | 227 kts | 320° |
| 2026-02-19 12:07 | 45.72024 | 8.64338 | 5124 ft | 229 kts | 325° |
| 2026-02-19 12:08 | 45.73524 | 8.63613 | 5851 ft | 234 kts | 2° |
| 2026-02-19 12:08 | 45.76065 | 8.66320 | 7320 ft | 243 kts | 55° |
| 2026-02-19 12:08 | 45.76970 | 8.68380 | 8102 ft | 245 kts | 55° |
| 2026-02-19 12:09 | 45.77838 | 8.70490 | 8889 ft | 249 kts | 62° |
| 2026-02-19 12:09 | 45.78241 | 8.72936 | 9640 ft | 259 kts | 85° |
| 2026-02-19 12:09 | 45.77941 | 8.75554 | 10088 ft | 282 kts | 109° |
| 2026-02-19 12:09 | 45.76868 | 8.78061 | 10329 ft | 308 kts | 124° |
| 2026-02-19 12:10 | 45.75555 | 8.80628 | 10535 ft | 331 kts | 124° |
| 2026-02-19 12:10 | 45.74141 | 8.83382 | 10715 ft | 354 kts | 124° |
| 2026-02-19 12:10 | 45.72671 | 8.86246 | 11127 ft | 367 kts | 124° |
| 2026-02-19 12:10 | 45.71155 | 8.89212 | 11742 ft | 372 kts | 124° |
| 2026-02-19 12:11 | 45.69621 | 8.92231 | 12390 ft | 377 kts | 124° |
| 2026-02-19 12:11 | 45.68071 | 8.95293 | 13030 ft | 382 kts | 124° |
| 2026-02-19 12:11 | 45.66576 | 8.98446 | 13641 ft | 385 kts | 117° |
| 2026-02-19 12:11 | 45.65467 | 9.01907 | 14254 ft | 384 kts | 106° |
| 2026-02-19 12:12 | 45.64815 | 9.05600 | 14920 ft | 382 kts | 95° |
| 2026-02-19 12:12 | 45.64659 | 9.13152 | 16233 ft | 380 kts | 86° |
| 2026-02-19 12:12 | 45.64680 | 9.16940 | 16871 ft | 382 kts | 87° |
| 2026-02-19 12:13 | 45.64699 | 9.20734 | 17492 ft | 384 kts | 88° |
| 2026-02-19 12:13 | 45.64717 | 9.24578 | 18076 ft | 386 kts | 88° |
| 2026-02-19 12:13 | 45.64737 | 9.28421 | 18727 ft | 388 kts | 88° |
| 2026-02-19 12:13 | 45.64757 | 9.32291 | 19240 ft | 390 kts | 88° |
| 2026-02-19 12:14 | 45.64772 | 9.36193 | 19734 ft | 393 kts | 88° |
| 2026-02-19 12:14 | 45.64786 | 9.40108 | 20235 ft | 396 kts | 88° |
| 2026-02-19 12:14 | 45.64799 | 9.44063 | 20739 ft | 399 kts | 89° |
| 2026-02-19 12:14 | 45.64810 | 9.48036 | 21198 ft | 402 kts | 89° |
| 2026-02-19 12:15 | 45.64818 | 9.52049 | 21654 ft | 404 kts | 89° |
| 2026-02-19 12:15 | 45.64825 | 9.56067 | 21872 ft | 407 kts | 89° |
| 2026-02-19 12:15 | 45.64831 | 9.60136 | 22306 ft | 410 kts | 89° |
| 2026-02-19 12:15 | 45.64838 | 9.64222 | 22734 ft | 412 kts | 89° |
| 2026-02-19 12:16 | 45.64851 | 9.68340 | 23167 ft | 415 kts | 89° |
| 2026-02-19 12:16 | 45.64877 | 9.76642 | 23868 ft | 420 kts | 90° |
| 2026-02-19 12:16 | 45.64888 | 9.80772 | 24211 ft | 423 kts | 90° |
| 2026-02-19 12:17 | 45.64900 | 9.84989 | 24531 ft | 425 kts | 90° |
| 2026-02-19 12:17 | 45.64909 | 9.89219 | 24855 ft | 428 kts | 90° |
| 2026-02-19 12:17 | 45.64917 | 9.93482 | 25188 ft | 430 kts | 90° |
| 2026-02-19 12:17 | 45.64923 | 9.97780 | 25516 ft | 432 kts | 90° |
| 2026-02-19 12:18 | 45.64925 | 10.02080 | 25840 ft | 434 kts | 91° |
| 2026-02-19 12:18 | 45.64922 | 10.06413 | 26156 ft | 437 kts | 91° |
| 2026-02-19 12:18 | 45.64915 | 10.10783 | 26460 ft | 440 kts | 91° |
| 2026-02-19 12:18 | 45.64908 | 10.15174 | 26787 ft | 443 kts | 91° |
| 2026-02-19 12:19 | 45.64903 | 10.19584 | 27095 ft | 446 kts | 92° |
| 2026-02-19 12:19 | 45.64898 | 10.24047 | 27408 ft | 448 kts | 92° |
| 2026-02-19 12:19 | 45.64889 | 10.28525 | 27706 ft | 452 kts | 92° |
| 2026-02-19 12:19 | 45.64879 | 10.33020 | 27999 ft | 454 kts | 92° |
| 2026-02-19 12:20 | 45.64865 | 10.37545 | 28258 ft | 456 kts | 93° |
| 2026-02-19 12:20 | 45.64823 | 10.46672 | 28769 ft | 461 kts | 93° |
| 2026-02-19 12:20 | 45.64669 | 10.51251 | 29004 ft | 461 kts | 100° |
| 2026-02-19 12:21 | 45.64134 | 10.55721 | 29261 ft | 461 kts | 104° |
| 2026-02-19 12:21 | 45.63537 | 10.60229 | 29517 ft | 463 kts | 104° |
| 2026-02-19 12:21 | 45.62938 | 10.64765 | 29780 ft | 465 kts | 104° |
| 2026-02-19 12:21 | 45.62338 | 10.69301 | 30089 ft | 464 kts | 105° |
| 2026-02-19 12:22 | 45.61736 | 10.73851 | 30364 ft | 465 kts | 105° |
| 2026-02-19 12:22 | 45.61134 | 10.78403 | 30645 ft | 465 kts | 105° |
| 2026-02-19 12:22 | 45.60534 | 10.82938 | 30927 ft | 466 kts | 105° |
| 2026-02-19 12:22 | 45.59928 | 10.87490 | 31209 ft | 466 kts | 106° |
| 2026-02-19 12:23 | 45.59317 | 10.92045 | 31478 ft | 467 kts | 106° |
| 2026-02-19 12:23 | 45.58701 | 10.96592 | 31732 ft | 467 kts | 106° |
| 2026-02-19 12:23 | 45.58080 | 11.01157 | 31976 ft | 468 kts | 106° |
| 2026-02-19 12:23 | 45.57459 | 11.05716 | 32248 ft | 469 kts | 107° |
| 2026-02-19 12:24 | 45.56836 | 11.10286 | 32506 ft | 469 kts | 107° |
| 2026-02-19 12:24 | 45.55585 | 11.19445 | 33007 ft | 471 kts | 107° |
| 2026-02-19 12:24 | 45.54960 | 11.24027 | 33228 ft | 472 kts | 107° |
| 2026-02-19 12:25 | 45.54332 | 11.28632 | 33491 ft | 472 kts | 107° |
| 2026-02-19 12:25 | 45.53711 | 11.33163 | 33708 ft | 473 kts | 107° |
| 2026-02-19 12:25 | 45.53075 | 11.37761 | 33904 ft | 473 kts | 107° |
| 2026-02-19 12:25 | 45.52436 | 11.42345 | 34348 ft | 465 kts | 107° |
| 2026-02-19 12:26 | 45.51817 | 11.46802 | 34531 ft | 452 kts | 108° |
| 2026-02-19 12:26 | 45.50599 | 11.55484 | 34579 ft | 444 kts | 108° |
| 2026-02-19 12:27 | 45.49378 | 11.64097 | 34583 ft | 443 kts | 108° |
| 2026-02-19 12:27 | 45.48157 | 11.72695 | 34586 ft | 443 kts | 108° |
| 2026-02-19 12:28 | 45.46929 | 11.81309 | 34589 ft | 443 kts | 108° |
| 2026-02-19 12:28 | 45.45076 | 11.94228 | 34580 ft | 444 kts | 109° |
| 2026-02-19 12:29 | 45.43834 | 12.02845 | 34570 ft | 444 kts | 109° |
| 2026-02-19 12:29 | 45.42578 | 12.11473 | 34542 ft | 445 kts | 109° |
| 2026-02-19 12:30 | 45.41319 | 12.20093 | 34569 ft | 444 kts | 109° |
| 2026-02-19 12:30 | 45.40060 | 12.28680 | 34582 ft | 442 kts | 109° |
| 2026-02-19 12:31 | 45.38798 | 12.37218 | 34581 ft | 440 kts | 109° |
| 2026-02-19 12:31 | 45.37526 | 12.45742 | 34577 ft | 440 kts | 109° |
| 2026-02-19 12:32 | 45.35610 | 12.58516 | 34563 ft | 440 kts | 109° |
| 2026-02-19 12:33 | 45.34331 | 12.67032 | 34560 ft | 441 kts | 109° |
| 2026-02-19 12:33 | 45.33034 | 12.75566 | 34563 ft | 441 kts | 110° |
| 2026-02-19 12:34 | 45.31759 | 12.84052 | 34564 ft | 444 kts | 106° |
| 2026-02-19 12:34 | 45.31381 | 12.92923 | 34568 ft | 453 kts | 96° |
| 2026-02-19 12:35 | 45.31333 | 13.01885 | 34574 ft | 454 kts | 96° |
| 2026-02-19 12:35 | 45.31264 | 13.10853 | 34577 ft | 454 kts | 96° |
| 2026-02-19 12:36 | 45.31181 | 13.19822 | 34589 ft | 454 kts | 96° |
| 2026-02-19 12:36 | 45.30389 | 13.33119 | 34599 ft | 449 kts | 104° |
| 2026-02-19 12:37 | 45.29593 | 13.41916 | 34605 ft | 449 kts | 104° |
| 2026-02-19 12:37 | 45.28799 | 13.50688 | 34612 ft | 450 kts | 104° |
| 2026-02-19 12:38 | 45.27993 | 13.59517 | 34601 ft | 451 kts | 104° |
| 2026-02-19 12:38 | 45.27172 | 13.68359 | 34604 ft | 452 kts | 104° |
| 2026-02-19 12:39 | 45.26344 | 13.77208 | 34612 ft | 453 kts | 104° |
| 2026-02-19 12:39 | 45.25508 | 13.86082 | 34625 ft | 453 kts | 104° |
| 2026-02-19 12:40 | 45.24246 | 13.99392 | 34641 ft | 454 kts | 104° |
| 2026-02-19 12:41 | 45.23391 | 14.08257 | 34649 ft | 454 kts | 104° |
| 2026-02-19 12:41 | 45.22530 | 14.17135 | 34656 ft | 453 kts | 104° |
| 2026-02-19 12:42 | 45.21666 | 14.25996 | 34653 ft | 453 kts | 104° |
| 2026-02-19 12:42 | 45.20798 | 14.34793 | 34653 ft | 453 kts | 104° |
| 2026-02-19 12:43 | 45.19915 | 14.43657 | 34655 ft | 453 kts | 104° |
| 2026-02-19 12:43 | 45.19022 | 14.52533 | 34649 ft | 453 kts | 104° |
| 2026-02-19 12:44 | 45.18129 | 14.61378 | 34652 ft | 454 kts | 105° |
| 2026-02-19 12:44 | 45.16927 | 14.73169 | 34647 ft | 455 kts | 105° |
| 2026-02-19 12:45 | 45.16018 | 14.82052 | 34653 ft | 455 kts | 105° |
| 2026-02-19 12:45 | 45.15100 | 14.90912 | 34650 ft | 455 kts | 105° |
| 2026-02-19 12:46 | 45.14171 | 14.99770 | 34640 ft | 455 kts | 105° |
| 2026-02-19 12:46 | 45.13231 | 15.08641 | 34638 ft | 455 kts | 105° |
| 2026-02-19 12:47 | 45.12284 | 15.17514 | 34638 ft | 456 kts | 105° |
| 2026-02-19 12:47 | 45.11343 | 15.26342 | 34637 ft | 456 kts | 105° |
| 2026-02-19 12:48 | 45.09905 | 15.39667 | 34641 ft | 457 kts | 105° |
| 2026-02-19 12:49 | 45.08935 | 15.48567 | 34651 ft | 457 kts | 105° |
| 2026-02-19 12:49 | 45.07964 | 15.57463 | 34659 ft | 457 kts | 105° |
| 2026-02-19 12:50 | 45.06983 | 15.66355 | 34662 ft | 458 kts | 105° |
| 2026-02-19 12:50 | 45.05990 | 15.75266 | 34670 ft | 459 kts | 105° |
| 2026-02-19 12:51 | 45.04985 | 15.84194 | 34670 ft | 460 kts | 105° |
| 2026-02-19 12:51 | 45.03972 | 15.93131 | 34670 ft | 460 kts | 106° |
| 2026-02-19 12:52 | 45.02955 | 16.02081 | 34678 ft | 461 kts | 105° |
| 2026-02-19 12:52 | 45.01417 | 16.15458 | 34679 ft | 462 kts | 105° |
| 2026-02-19 12:53 | 45.00381 | 16.24427 | 34691 ft | 463 kts | 106° |
| 2026-02-19 12:53 | 44.99322 | 16.33407 | 34694 ft | 463 kts | 107° |
| 2026-02-19 12:54 | 44.98168 | 16.42354 | 34693 ft | 463 kts | 107° |
| 2026-02-19 12:54 | 44.96959 | 16.51301 | 34699 ft | 463 kts | 107° |
| 2026-02-19 12:55 | 44.95764 | 16.60239 | 34716 ft | 464 kts | 107° |
| 2026-02-19 12:55 | 44.94574 | 16.69205 | 34717 ft | 464 kts | 107° |
| 2026-02-19 12:56 | 44.92770 | 16.82653 | 34722 ft | 464 kts | 107° |
| 2026-02-19 12:57 | 44.91564 | 16.91605 | 34729 ft | 465 kts | 107° |
| 2026-02-19 12:57 | 44.90345 | 17.00589 | 34727 ft | 465 kts | 107° |
| 2026-02-19 12:58 | 44.89116 | 17.09549 | 34729 ft | 466 kts | 107° |
| 2026-02-19 12:58 | 44.87880 | 17.18523 | 34728 ft | 467 kts | 107° |
| 2026-02-19 12:59 | 44.86639 | 17.27515 | 34729 ft | 467 kts | 107° |
| 2026-02-19 12:59 | 44.85384 | 17.36508 | 34735 ft | 468 kts | 107° |
| 2026-02-19 13:00 | 44.84121 | 17.45502 | 34736 ft | 468 kts | 107° |
| 2026-02-19 13:00 | 44.82223 | 17.59003 | 34736 ft | 468 kts | 107° |
| 2026-02-19 13:01 | 44.80945 | 17.68013 | 34738 ft | 469 kts | 107° |
| 2026-02-19 13:01 | 44.79653 | 17.77001 | 34749 ft | 469 kts | 107° |
| 2026-02-19 13:02 | 44.78351 | 17.85996 | 34754 ft | 469 kts | 107° |
| 2026-02-19 13:02 | 44.77050 | 17.95012 | 34760 ft | 469 kts | 107° |
| 2026-02-19 13:03 | 44.75737 | 18.04034 | 34781 ft | 480 kts | 107° |
| 2026-02-19 13:03 | 44.74359 | 18.13372 | 34780 ft | 495 kts | 107° |
| 2026-02-19 13:04 | 44.72214 | 18.27864 | 34617 ft | 514 kts | 107° |
| 2026-02-19 13:04 | 44.71479 | 18.32805 | 34148 ft | 516 kts | 107° |
| 2026-02-19 13:05 | 44.70742 | 18.37761 | 33566 ft | 518 kts | 107° |
| 2026-02-19 13:05 | 44.70004 | 18.42721 | 32939 ft | 519 kts | 107° |
| 2026-02-19 13:05 | 44.69263 | 18.47703 | 32319 ft | 520 kts | 107° |
| 2026-02-19 13:05 | 44.68517 | 18.52677 | 31711 ft | 519 kts | 107° |
| 2026-02-19 13:06 | 44.67768 | 18.57632 | 31123 ft | 517 kts | 107° |
| 2026-02-19 13:06 | 44.67019 | 18.62550 | 30542 ft | 513 kts | 107° |
| 2026-02-19 13:06 | 44.66281 | 18.67425 | 29974 ft | 509 kts | 107° |
| 2026-02-19 13:06 | 44.65549 | 18.72267 | 29329 ft | 504 kts | 107° |
| 2026-02-19 13:07 | 44.64821 | 18.77066 | 28677 ft | 500 kts | 107° |
| 2026-02-19 13:07 | 44.64096 | 18.81811 | 28043 ft | 496 kts | 107° |
| 2026-02-19 13:07 | 44.63371 | 18.86530 | 27421 ft | 492 kts | 107° |
| 2026-02-19 13:07 | 44.62650 | 18.91196 | 26812 ft | 488 kts | 107° |
| 2026-02-19 13:08 | 44.61931 | 18.95840 | 26214 ft | 484 kts | 107° |
| 2026-02-19 13:08 | 44.60507 | 19.04987 | 25057 ft | 476 kts | 107° |
| 2026-02-19 13:08 | 44.59949 | 19.09547 | 24501 ft | 475 kts | 98° |
| 2026-02-19 13:09 | 44.59934 | 19.14175 | 23977 ft | 474 kts | 86° |
| 2026-02-19 13:09 | 44.60300 | 19.18754 | 23462 ft | 470 kts | 85° |
| 2026-02-19 13:09 | 44.60674 | 19.23302 | 22870 ft | 466 kts | 85° |
| 2026-02-19 13:09 | 44.61037 | 19.27752 | 22271 ft | 463 kts | 85° |
| 2026-02-19 13:10 | 44.61393 | 19.32221 | 21691 ft | 459 kts | 85° |
| 2026-02-19 13:10 | 44.61741 | 19.36650 | 21288 ft | 452 kts | 85° |
| 2026-02-19 13:10 | 44.62057 | 19.40970 | 21197 ft | 437 kts | 86° |
| 2026-02-19 13:10 | 44.62334 | 19.45193 | 21167 ft | 434 kts | 86° |
| 2026-02-19 13:11 | 44.62592 | 19.49403 | 20668 ft | 432 kts | 86° |
| 2026-02-19 13:11 | 44.62839 | 19.53590 | 20149 ft | 429 kts | 86° |
| 2026-02-19 13:11 | 44.63081 | 19.57761 | 19628 ft | 428 kts | 86° |
| 2026-02-19 13:11 | 44.63327 | 19.61917 | 19115 ft | 426 kts | 86° |
| 2026-02-19 13:12 | 44.63581 | 19.66054 | 18610 ft | 424 kts | 86° |
| 2026-02-19 13:12 | 44.64095 | 19.74283 | 17545 ft | 421 kts | 86° |
| 2026-02-19 13:12 | 44.64348 | 19.78368 | 16954 ft | 420 kts | 86° |
| 2026-02-19 13:13 | 44.64599 | 19.82457 | 16298 ft | 421 kts | 86° |
| 2026-02-19 13:13 | 44.64849 | 19.86555 | 15651 ft | 421 kts | 86° |
| 2026-02-19 13:13 | 44.65096 | 19.90656 | 15023 ft | 421 kts | 86° |
| 2026-02-19 13:13 | 44.65341 | 19.94753 | 14406 ft | 421 kts | 86° |
| 2026-02-19 13:14 | 44.65581 | 19.98841 | 13804 ft | 419 kts | 86° |
| 2026-02-19 13:14 | 44.65821 | 20.02915 | 13147 ft | 418 kts | 85° |
| 2026-02-19 13:14 | 44.66478 | 20.06865 | 12477 ft | 416 kts | 65° |
| 2026-02-19 13:14 | 44.68120 | 20.10155 | 11830 ft | 411 kts | 41° |
| 2026-02-19 13:15 | 44.70456 | 20.12352 | 11213 ft | 401 kts | 20° |
| 2026-02-19 13:15 | 44.73088 | 20.13261 | 10693 ft | 379 kts | 360° |
| 2026-02-19 13:15 | 44.75610 | 20.12926 | 10230 ft | 350 kts | 340° |
| 2026-02-19 13:15 | 44.77749 | 20.11601 | 9854 ft | 323 kts | 322° |
| 2026-02-19 13:16 | 44.79389 | 20.09624 | 9464 ft | 300 kts | 306° |
| 2026-02-19 13:16 | 44.81546 | 20.04994 | 8706 ft | 271 kts | 297° |
| 2026-02-19 13:16 | 44.82534 | 20.02739 | 8372 ft | 268 kts | 297° |
| 2026-02-19 13:17 | 44.83509 | 20.00513 | 8036 ft | 266 kts | 298° |
| 2026-02-19 13:17 | 44.84479 | 19.98298 | 7708 ft | 266 kts | 298° |
| 2026-02-19 13:17 | 44.85446 | 19.96092 | 7379 ft | 263 kts | 298° |
| 2026-02-19 13:17 | 44.86405 | 19.93904 | 7021 ft | 262 kts | 298° |
| 2026-02-19 13:18 | 44.87357 | 19.91733 | 6807 ft | 258 kts | 298° |
| 2026-02-19 13:18 | 44.88306 | 19.89572 | 6706 ft | 260 kts | 298° |
| 2026-02-19 13:18 | 44.89243 | 19.87428 | 6605 ft | 260 kts | 298° |
| 2026-02-19 13:18 | 44.90193 | 19.85256 | 6498 ft | 259 kts | 298° |
| 2026-02-19 13:19 | 44.91137 | 19.83100 | 6389 ft | 258 kts | 298° |
| 2026-02-19 13:19 | 44.92071 | 19.80973 | 6353 ft | 246 kts | 298° |
| 2026-02-19 13:19 | 44.92953 | 19.78959 | 6274 ft | 238 kts | 297° |
| 2026-02-19 13:19 | 44.93815 | 19.76975 | 6144 ft | 237 kts | 297° |
| 2026-02-19 13:20 | 44.94679 | 19.74985 | 6019 ft | 237 kts | 297° |
| 2026-02-19 13:20 | 44.96483 | 19.71103 | 5786 ft | 241 kts | 312° |
| 2026-02-19 13:20 | 44.97971 | 19.69978 | 5683 ft | 250 kts | 345° |
| 2026-02-19 13:21 | 44.99724 | 19.70208 | 5576 ft | 263 kts | 20° |
| 2026-02-19 13:21 | 45.01338 | 19.71481 | 5480 ft | 267 kts | 28° |
| 2026-02-19 13:21 | 45.02922 | 19.72866 | 5377 ft | 268 kts | 32° |
| 2026-02-19 13:21 | 45.04200 | 19.74766 | 5259 ft | 270 kts | 62° |
| 2026-02-19 13:22 | 45.04681 | 19.77296 | 5130 ft | 267 kts | 93° |
| 2026-02-19 13:22 | 45.04283 | 19.79789 | 5006 ft | 255 kts | 122° |
| 2026-02-19 13:22 | 45.03386 | 19.81904 | 4894 ft | 249 kts | 127° |
| 2026-02-19 13:22 | 45.02476 | 19.83974 | 4756 ft | 247 kts | 127° |
| 2026-02-19 13:23 | 45.01574 | 19.86033 | 4640 ft | 244 kts | 127° |
| 2026-02-19 13:23 | 45.00694 | 19.88050 | 4481 ft | 238 kts | 127° |
| 2026-02-19 13:23 | 44.99832 | 19.90026 | 4363 ft | 235 kts | 128° |
| 2026-02-19 13:23 | 44.98975 | 19.91987 | 4236 ft | 233 kts | 128° |
| 2026-02-19 13:24 | 44.98122 | 19.93935 | 4101 ft | 233 kts | 128° |
| 2026-02-19 13:24 | 44.96428 | 19.97807 | 3971 ft | 230 kts | 128° |
| 2026-02-19 13:25 | 44.94756 | 20.01623 | 3971 ft | 224 kts | 128° |
| 2026-02-19 13:25 | 44.93978 | 20.03408 | 3972 ft | 204 kts | 128° |
| 2026-02-19 13:25 | 44.93243 | 20.05078 | 4002 ft | 199 kts | 128° |
| 2026-02-19 13:25 | 44.92514 | 20.06734 | 3953 ft | 198 kts | 128° |
| 2026-02-19 13:26 | 44.91788 | 20.08382 | 3758 ft | 197 kts | 128° |
| 2026-02-19 13:26 | 44.91301 | 20.09491 | 3608 ft | 195 kts | 128° |
| 2026-02-19 13:26 | 44.90590 | 20.11108 | 3347 ft | 193 kts | 128° |
| 2026-02-19 13:26 | 44.89898 | 20.12682 | 3097 ft | 190 kts | 128° |
| 2026-02-19 13:27 | 44.89208 | 20.14249 | 2837 ft | 186 kts | 128° |
| 2026-02-19 13:27 | 44.88527 | 20.15792 | 2583 ft | 184 kts | 127° |
| 2026-02-19 13:27 | 44.87876 | 20.17274 | 2336 ft | 171 kts | 127° |
| 2026-02-19 13:27 | 44.87271 | 20.18648 | 2133 ft | 161 kts | 128° |
| 2026-02-19 13:28 | 44.86682 | 20.19978 | 1900 ft | 157 kts | 128° |
| 2026-02-19 13:28 | 44.85555 | 20.22530 | 1482 ft | 148 kts | 128° |
| 2026-02-19 13:28 | 44.85033 | 20.23713 | 1271 ft | 138 kts | 127° |
| 2026-02-19 13:29 | 44.84528 | 20.24854 | 1073 ft | 136 kts | 125° |
| 2026-02-19 13:29 | 44.84035 | 20.25968 | 906 ft | 133 kts | 125° |
| 2026-02-19 13:29 | 44.83541 | 20.27087 | 669 ft | 138 kts | 127° |
| 2026-02-19 13:29 | 44.83041 | 20.28216 | 509 ft | 135 kts | 127° |
| 2026-02-19 13:30 | 44.82547 | 20.29335 | 331 ft | 133 kts | 127° |
| 2026-02-19 13:30 | 44.82118 | 20.30303 | 317 ft | 101 kts | 120° |
| 2026-02-19 13:30 | 44.81814 | 20.30996 | 321 ft | 54 kts | 120° |
| 2026-02-19 13:30 | 44.81640 | 20.31219 | 319 ft | 24 kts | 171° |
| 2026-02-19 13:31 | 44.81493 | 20.31174 | 318 ft | 16 kts | 221° |
| 2026-02-19 13:31 | 44.81472 | 20.31038 | 320 ft | 15 kts | 300° |
| 2026-02-19 13:31 | 44.81525 | 20.30920 | 320 ft | 14 kts | 302° |
| 2026-02-19 13:31 | 44.81573 | 20.30814 | 318 ft | 12 kts | 302° |
| 2026-02-19 13:32 | 44.81615 | 20.30719 | 320 ft | 11 kts | 302° |
| 2026-02-19 13:32 | 44.81685 | 20.30563 | 320 ft | 8 kts | 301° |
| 2026-02-19 13:32 | 44.81733 | 20.30452 | 320 ft | 17 kts | 302° |
| 2026-02-19 13:33 | 44.81796 | 20.30310 | 320 ft | 18 kts | 301° |
| 2026-02-19 13:33 | 44.81867 | 20.30153 | 320 ft | 20 kts | 303° |
| 2026-02-19 13:33 | 44.81945 | 20.29977 | 318 ft | 23 kts | 302° |
| 2026-02-19 13:33 | 44.82032 | 20.29781 | 320 ft | 16 kts | 305° |
| 2026-02-19 13:34 | 44.82090 | 20.29649 | 320 ft | 16 kts | 300° |
| 2026-02-19 13:34 | 44.82120 | 20.29555 | 319 ft | 8 kts | 253° |
| 2026-02-19 13:34 | 44.82074 | 20.29507 | 320 ft | 9 kts | 214° |
| 2026-02-19 13:34 | 44.82015 | 20.29452 | 318 ft | 11 kts | 212° |
| 2026-02-19 13:35 | 44.81943 | 20.29389 | 318 ft | 13 kts | 212° |
| 2026-02-19 13:35 | 44.81877 | 20.29330 | 320 ft | 9 kts | 216° |
| 2026-02-19 13:35 | 44.81875 | 20.29284 | 320 ft | 3 kts | 292° |
| 2026-02-19 13:35 | 44.81884 | 20.29265 | 320 ft | 1 kts | 301° |
| 2026-02-19 13:36 | 44.81887 | 20.29257 | 319 ft | 1 kts | 301° |
| 2026-02-19 13:36 | 44.81896 | 20.29236 | 319 ft | 1 kts | 302° |
| 2026-02-19 13:36 | 44.81897 | 20.29234 | 319 ft | 0 kts | 302° |